LCLK Airport Information

Runway Information
Runway 04 Length 9776 ft width 148 ft
Elevation 11 ft Threshold ft Heading 45
Runway 22 Length 9776 ft Width 148 ft
Elevation 6 ft Threshold 575 ft Heading 225
Airport Frequencies
Type APP Name APP Frequency 121.2 MHZ
Type ATIS Name ATIS Frequency 126.55 MHZ
Type TWR Name TWR Frequency 119.4 MHZ
Airport Navaids
Type VOR-DME Name Larnaca Frequency 112800 KHZ
Type NDB Name Larnaca Frequency 432 KHZ
Airport Weather Information & NOTAM
ADDS - METARS form results

(0724 UTC 30 June 2022)
Data provider http://aviationweather.gov/metar/data/
 
METAR text: LCLK 300700Z 12008KT CAVOK 29/22 Q1006 NOSIG
Conditions at: LCLK (LARNACA/LARNAX A, CY) observed 0700 UTC 30 June 2022
Temperature: 29.0°C (84°F)
Dewpoint: 22.0°C (72°F) [RH = 66%]
Pressure (altimeter): 29.70 inches Hg (1006.0 mb)
Winds: from the ESE (120 degrees) at 9 MPH (8 knots; 4.1 m/s)
Visibility: 6 or more miles (10+ km)
Ceiling: ceiling and visibility are OK
Clouds: unknown
Weather: no significant weather observed at this time

METAR text: LCLK 300630Z 11007KT CAVOK 29/21 Q1006 NOSIG
Conditions at: LCLK (LARNACA/LARNAX A, CY) observed 0630 UTC 30 June 2022
Temperature: 29.0°C (84°F)
Dewpoint: 21.0°C (70°F) [RH = 62%]
Pressure (altimeter): 29.70 inches Hg (1006.0 mb)
Winds: from the ESE (110 degrees) at 8 MPH (7 knots; 3.6 m/s)
Visibility: 6 or more miles (10+ km)
Ceiling: ceiling and visibility are OK
Clouds: unknown
Weather: no significant weather observed at this time

Forecast for: LCLK (LARNACA/LARNAX A, CY)
Text: TAF LCLK 300530Z 3006/0106 13007KT 9999 FEW025
Forecast period: 0600 to 0700 UTC 30 June 2022
Forecast type: FROM: standard forecast or significant change
Winds: from the SE (130 degrees) at 8 MPH (7 knots; 3.6 m/s)
Visibility: 6 or more miles (10+ km)
Ceiling: at least 12,000 feet AGL
Clouds: few clouds at 2500 feet AGL
Weather: no significant weather forecast for this period
Text: BECMG 3007/3010 20016KT
Forecast period: 0700 to 1700 UTC 30 June 2022
Forecast type: BECOMING: Conditions expected to become as follows by 1000 UTC 30 June 2022
Winds: from the SSW (200 degrees) at 18 MPH (16 knots; 8.2 m/s)
Visibility: 6 or more miles (10+ km)
Ceiling: at least 12,000 feet AGL
Clouds: few clouds at 2500 feet AGL
Weather: no significant weather forecast for this period
Text: BECMG 3017/3019 30008KT
Forecast period: 1700 UTC 30 June 2022 to 0600 UTC 01 July 2022
Forecast type: BECOMING: Conditions expected to become as follows by 1900 UTC 30 June 2022
Winds: from the WNW (300 degrees) at 9 MPH (8 knots; 4.1 m/s)
Visibility: 6 or more miles (10+ km)
Ceiling: at least 12,000 feet AGL
Clouds: few clouds at 2500 feet AGL
Weather: no significant weather forecast for this period